sensor_id;sensor_type;location;lat;lon;timestamp;temperature;humidity
22112;DHT22;11222;50.872;4.312;2023-08-24T00:00:52;20.90;99.90
22112;DHT22;11222;50.872;4.312;2023-08-24T00:03:17;20.90;99.90
22112;DHT22;11222;50.872;4.312;2023-08-24T00:05:43;20.90;99.90
22112;DHT22;11222;50.872;4.312;2023-08-24T00:08:08;20.80;99.90
22112;DHT22;11222;50.872;4.312;2023-08-24T00:10:35;20.80;99.90
22112;DHT22;11222;50.872;4.312;2023-08-24T00:13:00;20.80;99.90
22112;DHT22;11222;50.872;4.312;2023-08-24T00:15:26;20.90;99.90
22112;DHT22;11222;50.872;4.312;2023-08-24T00:17:52;20.90;99.90
22112;DHT22;11222;50.872;4.312;2023-08-24T00:20:17;20.90;99.90
22112;DHT22;11222;50.872;4.312;2023-08-24T00:22:43;20.90;99.90
22112;DHT22;11222;50.872;4.312;2023-08-24T00:25:08;20.90;99.90
22112;DHT22;11222;50.872;4.312;2023-08-24T00:27:34;20.90;99.90
22112;DHT22;11222;50.872;4.312;2023-08-24T00:30:02;20.90;99.90
22112;DHT22;11222;50.872;4.312;2023-08-24T00:32:28;20.90;99.90
22112;DHT22;11222;50.872;4.312;2023-08-24T00:34:53;20.80;99.90
22112;DHT22;11222;50.872;4.312;2023-08-24T00:37:19;20.90;99.90
22112;DHT22;11222;50.872;4.312;2023-08-24T00:39:44;20.80;99.90
22112;DHT22;11222;50.872;4.312;2023-08-24T00:42:10;20.80;99.90
22112;DHT22;11222;50.872;4.312;2023-08-24T00:44:40;20.90;99.90
22112;DHT22;11222;50.872;4.312;2023-08-24T00:47:06;20.90;99.90
22112;DHT22;11222;50.872;4.312;2023-08-24T00:49:31;20.90;99.90
22112;DHT22;11222;50.872;4.312;2023-08-24T00:51:57;20.90;99.90
22112;DHT22;11222;50.872;4.312;2023-08-24T00:54:23;20.90;99.90
22112;DHT22;11222;50.872;4.312;2023-08-24T00:56:49;20.90;99.90
22112;DHT22;11222;50.872;4.312;2023-08-24T00:59:14;20.90;99.90
22112;DHT22;11222;50.872;4.312;2023-08-24T01:01:40;20.90;99.90
22112;DHT22;11222;50.872;4.312;2023-08-24T01:04:06;21.00;99.90
22112;DHT22;11222;50.872;4.312;2023-08-24T01:06:32;21.10;99.90
22112;DHT22;11222;50.872;4.312;2023-08-24T01:08:58;21.20;99.90
22112;DHT22;11222;50.872;4.312;2023-08-24T01:11:49;21.30;99.90
22112;DHT22;11222;50.872;4.312;2023-08-24T01:16:45;21.50;99.90
22112;DHT22;11222;50.872;4.312;2023-08-24T01:19:16;21.30;99.90
22112;DHT22;11222;50.872;4.312;2023-08-24T01:21:47;21.20;99.90
22112;DHT22;11222;50.872;4.312;2023-08-24T01:24:23;21.30;99.90
22112;DHT22;11222;50.872;4.312;2023-08-24T01:26:51;21.20;99.90
22112;DHT22;11222;50.872;4.312;2023-08-24T01:29:17;21.20;99.90
22112;DHT22;11222;50.872;4.312;2023-08-24T01:31:44;21.20;99.90
22112;DHT22;11222;50.872;4.312;2023-08-24T01:34:09;21.30;99.90
22112;DHT22;11222;50.872;4.312;2023-08-24T01:36:35;21.20;99.90
22112;DHT22;11222;50.872;4.312;2023-08-24T01:39:15;21.30;99.90
22112;DHT22;11222;50.872;4.312;2023-08-24T01:41:45;21.20;99.90
22112;DHT22;11222;50.872;4.312;2023-08-24T01:44:14;21.10;99.90
22112;DHT22;11222;50.872;4.312;2023-08-24T01:46:41;21.00;99.90
22112;DHT22;11222;50.872;4.312;2023-08-24T01:49:07;20.90;99.90
22112;DHT22;11222;50.872;4.312;2023-08-24T01:51:33;20.90;99.90
22112;DHT22;11222;50.872;4.312;2023-08-24T01:54:00;20.90;99.90
22112;DHT22;11222;50.872;4.312;2023-08-24T01:56:26;21.00;99.90
22112;DHT22;11222;50.872;4.312;2023-08-24T01:58:51;21.00;99.90
22112;DHT22;11222;50.872;4.312;2023-08-24T02:01:17;21.00;99.90
22112;DHT22;11222;50.872;4.312;2023-08-24T02:03:42;21.00;99.90
22112;DHT22;11222;50.872;4.312;2023-08-24T02:06:08;20.90;99.90
22112;DHT22;11222;50.872;4.312;2023-08-24T02:08:34;20.90;99.90
22112;DHT22;11222;50.872;4.312;2023-08-24T02:10:59;20.80;99.90
22112;DHT22;11222;50.872;4.312;2023-08-24T02:13:25;20.60;99.90
22112;DHT22;11222;50.872;4.312;2023-08-24T02:15:50;20.40;99.90
22112;DHT22;11222;50.872;4.312;2023-08-24T02:18:16;20.30;99.90
22112;DHT22;11222;50.872;4.312;2023-08-24T02:20:41;20.20;99.90
22112;DHT22;11222;50.872;4.312;2023-08-24T02:23:07;20.20;99.90
22112;DHT22;11222;50.872;4.312;2023-08-24T02:25:32;20.10;99.90
22112;DHT22;11222;50.872;4.312;2023-08-24T02:27:58;20.00;99.90
22112;DHT22;11222;50.872;4.312;2023-08-24T02:30:24;20.00;99.90
22112;DHT22;11222;50.872;4.312;2023-08-24T02:32:49;20.10;99.90
22112;DHT22;11222;50.872;4.312;2023-08-24T02:35:16;20.00;99.90
22112;DHT22;11222;50.872;4.312;2023-08-24T02:37:41;20.10;99.90
22112;DHT22;11222;50.872;4.312;2023-08-24T02:40:07;20.20;99.90
22112;DHT22;11222;50.872;4.312;2023-08-24T02:42:34;20.30;99.90
22112;DHT22;11222;50.872;4.312;2023-08-24T02:45:00;20.30;99.90
22112;DHT22;11222;50.872;4.312;2023-08-24T02:47:25;20.30;99.90
22112;DHT22;11222;50.872;4.312;2023-08-24T02:49:51;20.40;99.90
22112;DHT22;11222;50.872;4.312;2023-08-24T02:52:17;20.50;99.90
22112;DHT22;11222;50.872;4.312;2023-08-24T02:54:42;20.70;99.90
22112;DHT22;11222;50.872;4.312;2023-08-24T02:57:08;20.80;99.90
22112;DHT22;11222;50.872;4.312;2023-08-24T02:59:33;20.90;99.90
22112;DHT22;11222;50.872;4.312;2023-08-24T03:01:59;20.80;99.90
22112;DHT22;11222;50.872;4.312;2023-08-24T03:04:24;20.90;99.90
22112;DHT22;11222;50.872;4.312;2023-08-24T03:06:50;20.90;99.90
22112;DHT22;11222;50.872;4.312;2023-08-24T03:09:15;21.00;99.90
22112;DHT22;11222;50.872;4.312;2023-08-24T03:11:41;21.00;99.90
22112;DHT22;11222;50.872;4.312;2023-08-24T03:14:06;20.90;99.90
22112;DHT22;11222;50.872;4.312;2023-08-24T03:16:32;20.90;99.90
22112;DHT22;11222;50.872;4.312;2023-08-24T03:18:57;20.80;99.90
22112;DHT22;11222;50.872;4.312;2023-08-24T03:21:23;20.70;99.90
22112;DHT22;11222;50.872;4.312;2023-08-24T03:23:49;20.60;99.90
22112;DHT22;11222;50.872;4.312;2023-08-24T03:26:14;20.60;99.90
22112;DHT22;11222;50.872;4.312;2023-08-24T03:28:42;20.60;99.90
22112;DHT22;11222;50.872;4.312;2023-08-24T03:31:07;20.50;99.90
22112;DHT22;11222;50.872;4.312;2023-08-24T03:33:33;20.50;99.90
22112;DHT22;11222;50.872;4.312;2023-08-24T03:36:00;20.50;99.90
22112;DHT22;11222;50.872;4.312;2023-08-24T03:38:26;20.50;99.90
22112;DHT22;11222;50.872;4.312;2023-08-24T03:40:52;20.60;99.90
22112;DHT22;11222;50.872;4.312;2023-08-24T03:43:17;20.60;99.90
22112;DHT22;11222;50.872;4.312;2023-08-24T03:45:43;20.60;99.90
22112;DHT22;11222;50.872;4.312;2023-08-24T03:48:09;20.50;99.90
22112;DHT22;11222;50.872;4.312;2023-08-24T03:50:34;20.40;99.90
22112;DHT22;11222;50.872;4.312;2023-08-24T03:53:00;20.40;99.90
22112;DHT22;11222;50.872;4.312;2023-08-24T03:55:26;20.40;99.90
22112;DHT22;11222;50.872;4.312;2023-08-24T03:57:51;20.30;99.90
22112;DHT22;11222;50.872;4.312;2023-08-24T04:00:17;20.40;99.90
22112;DHT22;11222;50.872;4.312;2023-08-24T04:02:43;20.50;99.90
22112;DHT22;11222;50.872;4.312;2023-08-24T04:05:08;20.70;99.90
22112;DHT22;11222;50.872;4.312;2023-08-24T04:07:34;20.80;99.90
22112;DHT22;11222;50.872;4.312;2023-08-24T04:10:02;20.80;99.90
22112;DHT22;11222;50.872;4.312;2023-08-24T04:12:30;20.80;99.90
22112;DHT22;11222;50.872;4.312;2023-08-24T04:14:56;20.80;99.90
22112;DHT22;11222;50.872;4.312;2023-08-24T04:17:23;20.80;99.90
22112;DHT22;11222;50.872;4.312;2023-08-24T04:19:48;20.80;99.90
22112;DHT22;11222;50.872;4.312;2023-08-24T04:22:14;20.80;99.90
22112;DHT22;11222;50.872;4.312;2023-08-24T04:24:39;20.80;99.90
22112;DHT22;11222;50.872;4.312;2023-08-24T04:27:05;20.80;99.90
22112;DHT22;11222;50.872;4.312;2023-08-24T04:29:31;20.70;99.90
22112;DHT22;11222;50.872;4.312;2023-08-24T04:31:57;20.70;99.90
22112;DHT22;11222;50.872;4.312;2023-08-24T04:34:22;20.50;99.90
22112;DHT22;11222;50.872;4.312;2023-08-24T04:36:48;20.30;99.90
22112;DHT22;11222;50.872;4.312;2023-08-24T04:39:14;20.20;99.90
22112;DHT22;11222;50.872;4.312;2023-08-24T04:41:39;20.00;99.90
22112;DHT22;11222;50.872;4.312;2023-08-24T04:44:05;20.10;99.90
22112;DHT22;11222;50.872;4.312;2023-08-24T04:46:31;20.10;99.90
22112;DHT22;11222;50.872;4.312;2023-08-24T04:48:57;20.20;99.90
22112;DHT22;11222;50.872;4.312;2023-08-24T04:51:22;20.30;99.90
22112;DHT22;11222;50.872;4.312;2023-08-24T04:53:48;20.30;99.90
22112;DHT22;11222;50.872;4.312;2023-08-24T04:56:13;20.50;99.90
22112;DHT22;11222;50.872;4.312;2023-08-24T04:58:40;20.50;99.90
22112;DHT22;11222;50.872;4.312;2023-08-24T05:01:05;20.60;99.90
22112;DHT22;11222;50.872;4.312;2023-08-24T05:03:31;20.60;99.90
22112;DHT22;11222;50.872;4.312;2023-08-24T05:05:56;20.70;99.90
22112;DHT22;11222;50.872;4.312;2023-08-24T05:08:22;20.70;99.90
22112;DHT22;11222;50.872;4.312;2023-08-24T05:10:47;20.80;99.90
22112;DHT22;11222;50.872;4.312;2023-08-24T05:13:13;20.80;99.90
22112;DHT22;11222;50.872;4.312;2023-08-24T05:15:38;20.50;99.90
22112;DHT22;11222;50.872;4.312;2023-08-24T05:18:04;20.20;99.90
22112;DHT22;11222;50.872;4.312;2023-08-24T05:20:29;19.90;99.90
22112;DHT22;11222;50.872;4.312;2023-08-24T05:22:55;19.80;99.90
22112;DHT22;11222;50.872;4.312;2023-08-24T05:25:21;19.80;99.90
22112;DHT22;11222;50.872;4.312;2023-08-24T05:27:47;19.80;99.90
22112;DHT22;11222;50.872;4.312;2023-08-24T05:30:12;19.80;99.90
22112;DHT22;11222;50.872;4.312;2023-08-24T05:32:39;20.00;99.90
22112;DHT22;11222;50.872;4.312;2023-08-24T05:35:06;20.10;99.90
22112;DHT22;11222;50.872;4.312;2023-08-24T05:37:32;20.20;99.90
22112;DHT22;11222;50.872;4.312;2023-08-24T05:39:59;20.40;99.90
22112;DHT22;11222;50.872;4.312;2023-08-24T05:42:25;20.80;99.90
22112;DHT22;11222;50.872;4.312;2023-08-24T05:44:51;21.10;99.90
22112;DHT22;11222;50.872;4.312;2023-08-24T05:47:16;21.30;99.90
22112;DHT22;11222;50.872;4.312;2023-08-24T05:49:42;21.40;99.90
22112;DHT22;11222;50.872;4.312;2023-08-24T05:52:08;21.50;99.90
22112;DHT22;11222;50.872;4.312;2023-08-24T05:54:35;21.50;99.90
22112;DHT22;11222;50.872;4.312;2023-08-24T05:57:01;21.40;99.90
22112;DHT22;11222;50.872;4.312;2023-08-24T05:59:27;21.50;99.90
22112;DHT22;11222;50.872;4.312;2023-08-24T06:01:53;21.60;99.90
22112;DHT22;11222;50.872;4.312;2023-08-24T06:04:19;21.60;99.90
22112;DHT22;11222;50.872;4.312;2023-08-24T06:06:44;21.70;99.90
22112;DHT22;11222;50.872;4.312;2023-08-24T06:09:10;21.80;99.90
22112;DHT22;11222;50.872;4.312;2023-08-24T06:11:35;22.00;99.90
22112;DHT22;11222;50.872;4.312;2023-08-24T06:14:01;21.90;99.90
22112;DHT22;11222;50.872;4.312;2023-08-24T06:16:27;22.10;99.90
22112;DHT22;11222;50.872;4.312;2023-08-24T06:18:52;22.20;99.90
22112;DHT22;11222;50.872;4.312;2023-08-24T06:21:18;22.30;99.90
22112;DHT22;11222;50.872;4.312;2023-08-24T06:23:44;22.40;99.90
22112;DHT22;11222;50.872;4.312;2023-08-24T06:26:10;22.50;99.90
22112;DHT22;11222;50.872;4.312;2023-08-24T06:28:35;22.70;99.90
22112;DHT22;11222;50.872;4.312;2023-08-24T06:31:01;22.90;99.90
22112;DHT22;11222;50.872;4.312;2023-08-24T06:33:27;23.10;99.90
22112;DHT22;11222;50.872;4.312;2023-08-24T06:35:54;23.30;99.90
22112;DHT22;11222;50.872;4.312;2023-08-24T06:38:21;23.50;99.90
22112;DHT22;11222;50.872;4.312;2023-08-24T06:40:47;23.60;99.90
22112;DHT22;11222;50.872;4.312;2023-08-24T06:43:12;23.80;99.90
22112;DHT22;11222;50.872;4.312;2023-08-24T06:45:39;23.80;99.90
22112;DHT22;11222;50.872;4.312;2023-08-24T06:48:04;23.90;99.90
22112;DHT22;11222;50.872;4.312;2023-08-24T06:50:32;23.70;99.90
22112;DHT22;11222;50.872;4.312;2023-08-24T06:52:58;23.90;99.90
22112;DHT22;11222;50.872;4.312;2023-08-24T06:55:23;23.90;99.90
22112;DHT22;11222;50.872;4.312;2023-08-24T06:57:49;23.60;99.90
22112;DHT22;11222;50.872;4.312;2023-08-24T07:00:18;23.70;99.90
22112;DHT22;11222;50.872;4.312;2023-08-24T07:02:50;23.70;99.90
22112;DHT22;11222;50.872;4.312;2023-08-24T07:05:17;23.80;99.90
22112;DHT22;11222;50.872;4.312;2023-08-24T07:07:46;23.90;99.90
22112;DHT22;11222;50.872;4.312;2023-08-24T07:10:12;24.20;99.90
22112;DHT22;11222;50.872;4.312;2023-08-24T07:12:38;24.30;99.90
22112;DHT22;11222;50.872;4.312;2023-08-24T07:15:06;24.60;99.90
22112;DHT22;11222;50.872;4.312;2023-08-24T07:17:32;25.00;99.90
22112;DHT22;11222;50.872;4.312;2023-08-24T07:19:58;25.20;99.90
22112;DHT22;11222;50.872;4.312;2023-08-24T07:22:23;25.20;99.90
22112;DHT22;11222;50.872;4.312;2023-08-24T07:24:52;25.30;99.90
22112;DHT22;11222;50.872;4.312;2023-08-24T07:27:17;25.50;99.90
22112;DHT22;11222;50.872;4.312;2023-08-24T07:29:43;25.50;99.90
22112;DHT22;11222;50.872;4.312;2023-08-24T07:32:09;25.50;99.90
22112;DHT22;11222;50.872;4.312;2023-08-24T07:34:34;25.60;99.90
22112;DHT22;11222;50.872;4.312;2023-08-24T07:37:00;25.50;99.90
22112;DHT22;11222;50.872;4.312;2023-08-24T07:39:25;25.40;99.90
22112;DHT22;11222;50.872;4.312;2023-08-24T07:41:52;25.50;99.90
22112;DHT22;11222;50.872;4.312;2023-08-24T07:44:17;25.60;99.90
22112;DHT22;11222;50.872;4.312;2023-08-24T07:46:43;25.70;99.90
22112;DHT22;11222;50.872;4.312;2023-08-24T07:49:08;25.50;99.90
22112;DHT22;11222;50.872;4.312;2023-08-24T07:51:34;25.30;99.90
22112;DHT22;11222;50.872;4.312;2023-08-24T07:54:00;25.20;99.90
22112;DHT22;11222;50.872;4.312;2023-08-24T07:56:25;25.30;99.90
22112;DHT22;11222;50.872;4.312;2023-08-24T07:58:51;25.50;99.90
22112;DHT22;11222;50.872;4.312;2023-08-24T08:01:16;25.50;99.90
22112;DHT22;11222;50.872;4.312;2023-08-24T08:03:42;25.50;99.90
22112;DHT22;11222;50.872;4.312;2023-08-24T08:06:07;25.60;99.90
22112;DHT22;11222;50.872;4.312;2023-08-24T08:08:33;25.50;99.90
22112;DHT22;11222;50.872;4.312;2023-08-24T08:11:02;25.40;99.90
22112;DHT22;11222;50.872;4.312;2023-08-24T08:13:28;25.50;99.90
22112;DHT22;11222;50.872;4.312;2023-08-24T08:15:53;25.40;99.90
22112;DHT22;11222;50.872;4.312;2023-08-24T08:18:19;25.20;99.90
22112;DHT22;11222;50.872;4.312;2023-08-24T08:20:45;25.20;99.90
22112;DHT22;11222;50.872;4.312;2023-08-24T08:23:10;25.30;99.90
22112;DHT22;11222;50.872;4.312;2023-08-24T08:25:36;25.40;99.90
22112;DHT22;11222;50.872;4.312;2023-08-24T08:28:01;25.30;99.90
22112;DHT22;11222;50.872;4.312;2023-08-24T08:30:27;25.20;99.90
22112;DHT22;11222;50.872;4.312;2023-08-24T08:32:54;25.00;99.90
22112;DHT22;11222;50.872;4.312;2023-08-24T08:35:21;25.20;99.90
22112;DHT22;11222;50.872;4.312;2023-08-24T08:37:47;25.30;99.90
22112;DHT22;11222;50.872;4.312;2023-08-24T08:40:15;25.40;99.90
22112;DHT22;11222;50.872;4.312;2023-08-24T08:42:40;25.60;99.90
22112;DHT22;11222;50.872;4.312;2023-08-24T08:45:08;25.60;99.90
22112;DHT22;11222;50.872;4.312;2023-08-24T08:47:34;25.20;99.90
22112;DHT22;11222;50.872;4.312;2023-08-24T08:49:59;25.30;99.90
22112;DHT22;11222;50.872;4.312;2023-08-24T08:52:28;25.60;99.90
22112;DHT22;11222;50.872;4.312;2023-08-24T08:54:53;25.80;99.90
22112;DHT22;11222;50.872;4.312;2023-08-24T08:57:19;26.10;99.90
22112;DHT22;11222;50.872;4.312;2023-08-24T08:59:46;25.90;99.90
22112;DHT22;11222;50.872;4.312;2023-08-24T09:02:16;26.10;99.90
22112;DHT22;11222;50.872;4.312;2023-08-24T09:04:41;26.30;99.90
22112;DHT22;11222;50.872;4.312;2023-08-24T09:07:09;26.50;99.90
22112;DHT22;11222;50.872;4.312;2023-08-24T09:09:37;26.50;99.90
22112;DHT22;11222;50.872;4.312;2023-08-24T09:12:04;26.20;99.90
22112;DHT22;11222;50.872;4.312;2023-08-24T09:14:30;26.00;99.90
22112;DHT22;11222;50.872;4.312;2023-08-24T09:16:56;25.90;99.90
22112;DHT22;11222;50.872;4.312;2023-08-24T09:19:27;25.70;99.90
22112;DHT22;11222;50.872;4.312;2023-08-24T09:21:53;25.50;99.90
22112;DHT22;11222;50.872;4.312;2023-08-24T09:24:28;25.10;99.90
22112;DHT22;11222;50.872;4.312;2023-08-24T09:26:54;24.80;99.90
22112;DHT22;11222;50.872;4.312;2023-08-24T09:29:19;24.50;99.90
22112;DHT22;11222;50.872;4.312;2023-08-24T09:31:46;24.20;99.90
22112;DHT22;11222;50.872;4.312;2023-08-24T09:34:11;23.90;99.90
22112;DHT22;11222;50.872;4.312;2023-08-24T09:36:37;23.60;99.90
22112;DHT22;11222;50.872;4.312;2023-08-24T09:39:03;23.30;99.90
22112;DHT22;11222;50.872;4.312;2023-08-24T09:41:43;23.10;99.90
22112;DHT22;11222;50.872;4.312;2023-08-24T09:44:08;22.60;99.90
22112;DHT22;11222;50.872;4.312;2023-08-24T09:46:35;22.30;99.90
22112;DHT22;11222;50.872;4.312;2023-08-24T09:49:01;22.20;99.90
22112;DHT22;11222;50.872;4.312;2023-08-24T09:51:27;22.00;99.90
22112;DHT22;11222;50.872;4.312;2023-08-24T09:53:52;22.00;99.90
22112;DHT22;11222;50.872;4.312;2023-08-24T09:56:21;21.90;99.90
22112;DHT22;11222;50.872;4.312;2023-08-24T09:58:48;21.80;99.90
22112;DHT22;11222;50.872;4.312;2023-08-24T10:01:14;21.80;99.90
22112;DHT22;11222;50.872;4.312;2023-08-24T10:03:42;21.70;99.90
22112;DHT22;11222;50.872;4.312;2023-08-24T10:06:08;21.70;99.90
22112;DHT22;11222;50.872;4.312;2023-08-24T10:08:36;21.70;99.90
22112;DHT22;11222;50.872;4.312;2023-08-24T10:11:05;21.70;99.90
22112;DHT22;11222;50.872;4.312;2023-08-24T10:13:48;21.70;99.90
22112;DHT22;11222;50.872;4.312;2023-08-24T10:16:15;21.70;99.90
22112;DHT22;11222;50.872;4.312;2023-08-24T10:18:41;21.70;99.90
22112;DHT22;11222;50.872;4.312;2023-08-24T10:21:07;21.80;99.90
22112;DHT22;11222;50.872;4.312;2023-08-24T10:23:34;21.70;99.90
22112;DHT22;11222;50.872;4.312;2023-08-24T10:26:02;21.60;99.90
22112;DHT22;11222;50.872;4.312;2023-08-24T10:28:28;21.40;99.90
22112;DHT22;11222;50.872;4.312;2023-08-24T10:30:55;21.10;99.90
22112;DHT22;11222;50.872;4.312;2023-08-24T10:33:20;20.90;99.90
22112;DHT22;11222;50.872;4.312;2023-08-24T10:35:47;20.80;99.90
22112;DHT22;11222;50.872;4.312;2023-08-24T10:38:23;20.70;99.90
22112;DHT22;11222;50.872;4.312;2023-08-24T10:40:49;20.70;99.90
22112;DHT22;11222;50.872;4.312;2023-08-24T10:43:16;20.70;99.90
22112;DHT22;11222;50.872;4.312;2023-08-24T10:45:57;20.80;99.90
22112;DHT22;11222;50.872;4.312;2023-08-24T10:48:24;20.90;99.90
22112;DHT22;11222;50.872;4.312;2023-08-24T10:53:37;21.10;99.90
22112;DHT22;11222;50.872;4.312;2023-08-24T10:56:12;21.40;99.90
22112;DHT22;11222;50.872;4.312;2023-08-24T10:58:38;21.80;99.90
22112;DHT22;11222;50.872;4.312;2023-08-24T11:01:03;22.20;99.90
22112;DHT22;11222;50.872;4.312;2023-08-24T11:03:33;22.50;99.90
22112;DHT22;11222;50.872;4.312;2023-08-24T11:05:59;22.60;99.90
22112;DHT22;11222;50.872;4.312;2023-08-24T11:09:25;22.80;99.90
22112;DHT22;11222;50.872;4.312;2023-08-24T11:11:20;22.50;99.90
22112;DHT22;11222;50.872;4.312;2023-08-24T11:16:44;22.40;99.90
22112;DHT22;11222;50.872;4.312;2023-08-24T11:19:12;22.40;99.90
22112;DHT22;11222;50.872;4.312;2023-08-24T11:21:39;22.40;99.90
22112;DHT22;11222;50.872;4.312;2023-08-24T11:24:05;22.60;99.90
22112;DHT22;11222;50.872;4.312;2023-08-24T11:26:31;22.60;99.90
22112;DHT22;11222;50.872;4.312;2023-08-24T11:28:56;22.80;99.90
22112;DHT22;11222;50.872;4.312;2023-08-24T11:31:23;22.80;99.90
22112;DHT22;11222;50.872;4.312;2023-08-24T11:33:53;23.00;99.90
22112;DHT22;11222;50.872;4.312;2023-08-24T11:36:20;23.20;99.90
22112;DHT22;11222;50.872;4.312;2023-08-24T11:38:46;23.20;99.90
22112;DHT22;11222;50.872;4.312;2023-08-24T11:41:16;23.40;99.90
22112;DHT22;11222;50.872;4.312;2023-08-24T11:43:45;23.60;99.90
22112;DHT22;11222;50.872;4.312;2023-08-24T11:46:11;23.70;99.90
22112;DHT22;11222;50.872;4.312;2023-08-24T11:48:38;23.80;99.90
22112;DHT22;11222;50.872;4.312;2023-08-24T11:51:07;23.80;99.90
22112;DHT22;11222;50.872;4.312;2023-08-24T11:53:36;23.70;99.90
22112;DHT22;11222;50.872;4.312;2023-08-24T11:56:02;23.60;99.90
22112;DHT22;11222;50.872;4.312;2023-08-24T11:58:28;23.50;99.90
22112;DHT22;11222;50.872;4.312;2023-08-24T12:00:54;23.20;99.90
22112;DHT22;11222;50.872;4.312;2023-08-24T12:03:19;23.00;99.90
22112;DHT22;11222;50.872;4.312;2023-08-24T12:05:45;22.90;99.90
22112;DHT22;11222;50.872;4.312;2023-08-24T12:08:10;22.90;99.90
22112;DHT22;11222;50.872;4.312;2023-08-24T12:10:41;22.90;99.90
22112;DHT22;11222;50.872;4.312;2023-08-24T12:13:06;22.80;99.90
22112;DHT22;11222;50.872;4.312;2023-08-24T12:15:35;22.90;99.90
22112;DHT22;11222;50.872;4.312;2023-08-24T12:18:11;22.90;99.90
22112;DHT22;11222;50.872;4.312;2023-08-24T12:20:37;22.90;99.90
22112;DHT22;11222;50.872;4.312;2023-08-24T12:23:03;22.80;99.90
22112;DHT22;11222;50.872;4.312;2023-08-24T12:25:29;22.60;99.90
22112;DHT22;11222;50.872;4.312;2023-08-24T12:28:10;22.40;99.90
22112;DHT22;11222;50.872;4.312;2023-08-24T12:30:52;22.20;99.90
22112;DHT22;11222;50.872;4.312;2023-08-24T12:33:24;22.10;99.90
22112;DHT22;11222;50.872;4.312;2023-08-24T12:35:50;22.00;99.90
22112;DHT22;11222;50.872;4.312;2023-08-24T12:38:16;22.00;99.90
22112;DHT22;11222;50.872;4.312;2023-08-24T12:40:42;21.90;99.90
22112;DHT22;11222;50.872;4.312;2023-08-24T12:43:07;21.80;99.90
22112;DHT22;11222;50.872;4.312;2023-08-24T12:45:33;21.80;99.90
22112;DHT22;11222;50.872;4.312;2023-08-24T12:48:01;21.70;99.90
22112;DHT22;11222;50.872;4.312;2023-08-24T12:50:28;21.70;99.90
22112;DHT22;11222;50.872;4.312;2023-08-24T12:53:02;21.60;99.90
22112;DHT22;11222;50.872;4.312;2023-08-24T12:55:31;21.50;99.90
22112;DHT22;11222;50.872;4.312;2023-08-24T12:57:57;21.40;99.90
22112;DHT22;11222;50.872;4.312;2023-08-24T13:00:22;21.40;99.90
22112;DHT22;11222;50.872;4.312;2023-08-24T13:02:48;21.40;99.90
22112;DHT22;11222;50.872;4.312;2023-08-24T13:05:14;21.40;99.90
22112;DHT22;11222;50.872;4.312;2023-08-24T13:07:40;21.50;99.90
22112;DHT22;11222;50.872;4.312;2023-08-24T13:10:05;21.50;99.90
22112;DHT22;11222;50.872;4.312;2023-08-24T13:12:31;21.60;99.90
22112;DHT22;11222;50.872;4.312;2023-08-24T13:14:57;21.60;99.90
22112;DHT22;11222;50.872;4.312;2023-08-24T13:17:23;21.60;99.90
22112;DHT22;11222;50.872;4.312;2023-08-24T13:19:48;21.60;99.90
22112;DHT22;11222;50.872;4.312;2023-08-24T13:22:17;21.60;99.90
22112;DHT22;11222;50.872;4.312;2023-08-24T13:24:42;21.50;99.90
22112;DHT22;11222;50.872;4.312;2023-08-24T13:27:11;21.60;99.90
22112;DHT22;11222;50.872;4.312;2023-08-24T13:29:37;21.60;99.90
22112;DHT22;11222;50.872;4.312;2023-08-24T13:32:03;21.60;99.90
22112;DHT22;11222;50.872;4.312;2023-08-24T13:34:29;21.60;99.90
22112;DHT22;11222;50.872;4.312;2023-08-24T13:36:55;21.70;99.90
22112;DHT22;11222;50.872;4.312;2023-08-24T13:39:21;21.70;99.90
22112;DHT22;11222;50.872;4.312;2023-08-24T13:41:46;21.70;99.90
22112;DHT22;11222;50.872;4.312;2023-08-24T13:44:12;21.50;99.90
22112;DHT22;11222;50.872;4.312;2023-08-24T13:46:38;21.50;99.90
22112;DHT22;11222;50.872;4.312;2023-08-24T13:49:04;21.60;99.90
22112;DHT22;11222;50.872;4.312;2023-08-24T13:51:29;21.60;99.90
22112;DHT22;11222;50.872;4.312;2023-08-24T13:53:55;21.60;99.90
22112;DHT22;11222;50.872;4.312;2023-08-24T13:56:20;21.70;99.90
22112;DHT22;11222;50.872;4.312;2023-08-24T13:58:46;21.80;99.90
22112;DHT22;11222;50.872;4.312;2023-08-24T14:01:12;22.00;99.90
22112;DHT22;11222;50.872;4.312;2023-08-24T14:03:38;22.00;99.90
22112;DHT22;11222;50.872;4.312;2023-08-24T14:06:05;22.20;99.90
22112;DHT22;11222;50.872;4.312;2023-08-24T14:08:30;22.20;99.90
22112;DHT22;11222;50.872;4.312;2023-08-24T14:10:56;22.20;99.90
22112;DHT22;11222;50.872;4.312;2023-08-24T14:13:21;22.30;99.90
22112;DHT22;11222;50.872;4.312;2023-08-24T14:15:48;22.40;99.90
22112;DHT22;11222;50.872;4.312;2023-08-24T14:18:15;22.40;99.90
22112;DHT22;11222;50.872;4.312;2023-08-24T14:20:42;22.50;99.90
22112;DHT22;11222;50.872;4.312;2023-08-24T14:23:08;22.50;99.90
22112;DHT22;11222;50.872;4.312;2023-08-24T14:25:33;22.50;99.90
22112;DHT22;11222;50.872;4.312;2023-08-24T14:27:59;22.60;99.90
22112;DHT22;11222;50.872;4.312;2023-08-24T14:30:25;22.60;99.90
22112;DHT22;11222;50.872;4.312;2023-08-24T14:32:50;22.80;99.90
22112;DHT22;11222;50.872;4.312;2023-08-24T14:35:16;23.00;99.90
22112;DHT22;11222;50.872;4.312;2023-08-24T14:37:41;23.00;99.90
22112;DHT22;11222;50.872;4.312;2023-08-24T14:40:07;23.10;99.90
22112;DHT22;11222;50.872;4.312;2023-08-24T14:42:32;23.10;99.90
22112;DHT22;11222;50.872;4.312;2023-08-24T14:44:58;23.20;99.90
22112;DHT22;11222;50.872;4.312;2023-08-24T14:47:24;23.20;99.90
22112;DHT22;11222;50.872;4.312;2023-08-24T14:49:49;23.30;99.90
22112;DHT22;11222;50.872;4.312;2023-08-24T14:52:15;23.30;99.90
22112;DHT22;11222;50.872;4.312;2023-08-24T14:54:41;23.20;99.90
22112;DHT22;11222;50.872;4.312;2023-08-24T14:57:06;23.40;99.90
22112;DHT22;11222;50.872;4.312;2023-08-24T14:59:32;23.30;99.90
22112;DHT22;11222;50.872;4.312;2023-08-24T15:01:59;23.60;99.90
22112;DHT22;11222;50.872;4.312;2023-08-24T15:04:26;23.40;99.90
22112;DHT22;11222;50.872;4.312;2023-08-24T15:06:52;23.30;99.90
22112;DHT22;11222;50.872;4.312;2023-08-24T15:09:17;23.10;99.90
22112;DHT22;11222;50.872;4.312;2023-08-24T15:11:43;23.30;99.90
22112;DHT22;11222;50.872;4.312;2023-08-24T15:14:08;23.40;99.90
22112;DHT22;11222;50.872;4.312;2023-08-24T15:16:34;23.50;99.90
22112;DHT22;11222;50.872;4.312;2023-08-24T15:19:00;23.50;99.90
22112;DHT22;11222;50.872;4.312;2023-08-24T15:21:25;23.40;99.90
22112;DHT22;11222;50.872;4.312;2023-08-24T15:23:51;23.60;99.90
22112;DHT22;11222;50.872;4.312;2023-08-24T15:26:16;23.80;99.90
22112;DHT22;11222;50.872;4.312;2023-08-24T15:31:26;24.20;99.90
22112;DHT22;11222;50.872;4.312;2023-08-24T15:33:51;24.30;99.90
22112;DHT22;11222;50.872;4.312;2023-08-24T15:36:17;24.50;99.90